Time;durP1;ratioP1;P1;durP2;ratioP2;P2;SDS_P1;SDS_P2;PMS_P1;PMS_P2;Temp;Humidity;BMP_temperature;BMP_pressure;BME280_temperature;BME280_humidity;BME280_pressure;Samples;Min_cycle;Max_cycle;Signal;HPM_P1;HPM_P2
2023/02/18 00:01:54;;;;;;;13.48;12.57;;;;;;;;;;5076455;28;20222;-73
2023/02/18 00:04:23;;;;;;;4.82;4.57;;;;;;;;;;5075244;28;20220;-74
2023/02/18 00:06:51;;;;;;;1.10;1.10;;;;;;;;;;5076129;28;20229;-75
2023/02/18 00:09:18;;;;;;;1.15;1.15;;;;;;;;;;5075641;28;20223;-75
2023/02/18 00:11:46;;;;;;;1.48;1.42;;;;;;;;;;5075151;28;20224;-74
2023/02/18 00:14:15;;;;;;;0.60;0.60;;;;;;;;;;5076585;28;20224;-74
2023/02/18 00:16:42;;;;;;;1.00;1.00;;;;;;;;;;5075955;28;20256;-74
2023/02/18 00:19:16;;;;;;;0.77;0.77;;;;;;;;;;5075819;28;20651;-74
2023/02/18 00:21:46;;;;;;;1.83;1.73;;;;;;;;;;5075814;28;20228;-74
2023/02/18 00:24:15;;;;;;;1.20;1.20;;;;;;;;;;5076592;28;20572;-74
2023/02/18 00:26:43;;;;;;;1.25;1.25;;;;;;;;;;5077003;28;20221;-73
2023/02/18 00:29:11;;;;;;;1.65;1.58;;;;;;;;;;5078362;28;20643;-73
2023/02/18 00:31:40;;;;;;;1.52;1.50;;;;;;;;;;5079987;28;20221;-73
2023/02/18 00:34:08;;;;;;;1.25;1.25;;;;;;;;;;5080808;28;20318;-74
2023/02/18 00:36:38;;;;;;;0.90;0.90;;;;;;;;;;5086260;28;20251;-74
2023/02/18 00:39:08;;;;;;;0.65;0.65;;;;;;;;;;5085274;28;20321;-74
2023/02/18 00:41:36;;;;;;;1.13;1.13;;;;;;;;;;5090994;28;20219;-74
2023/02/18 00:44:03;;;;;;;0.85;0.85;;;;;;;;;;5099901;28;20224;-74
2023/02/18 00:46:32;;;;;;;1.35;1.35;;;;;;;;;;5099453;28;20288;-74
2023/02/18 00:49:00;;;;;;;2.03;1.92;;;;;;;;;;5093474;28;20474;-74
2023/02/18 00:51:28;;;;;;;0.90;0.90;;;;;;;;;;5099862;28;20244;-75
2023/02/18 00:54:13;;;;;;;2.03;1.92;;;;;;;;;;5099773;28;20287;-74
2023/02/18 00:57:06;;;;;;;0.95;0.95;;;;;;;;;;5100175;28;20265;-74
2023/02/18 00:59:38;;;;;;;0.85;0.85;;;;;;;;;;5099852;28;20329;-74
2023/02/18 01:04:50;;;;;;;1.80;1.70;;;;;;;;;;5101173;28;20255;-74
2023/02/18 01:07:18;;;;;;;1.48;1.42;;;;;;;;;;5099605;28;20680;-74
2023/02/18 01:09:46;;;;;;;1.83;1.73;;;;;;;;;;5099503;28;20225;-75
2023/02/18 01:12:15;;;;;;;1.52;1.52;;;;;;;;;;5100155;28;20281;-76
2023/02/18 01:14:50;;;;;;;1.50;1.50;;;;;;;;;;5099689;28;20220;-74
2023/02/18 01:17:17;;;;;;;2.90;2.78;;;;;;;;;;5099472;28;20226;-73
2023/02/18 01:19:45;;;;;;;1.30;1.30;;;;;;;;;;5100239;28;20240;-73
2023/02/18 01:22:13;;;;;;;1.67;1.60;;;;;;;;;;5099192;28;20216;-74
2023/02/18 01:24:40;;;;;;;1.25;1.25;;;;;;;;;;5099909;28;20224;-75
2023/02/18 01:27:08;;;;;;;0.95;0.95;;;;;;;;;;5097424;28;20219;-74
2023/02/18 01:29:38;;;;;;;1.33;1.33;;;;;;;;;;5082645;28;20212;-74
2023/02/18 01:32:05;;;;;;;0.73;0.73;;;;;;;;;;5079359;28;20235;-73
2023/02/18 01:34:36;;;;;;;1.00;0.98;;;;;;;;;;5079093;28;20221;-74
2023/02/18 01:37:04;;;;;;;1.02;1.02;;;;;;;;;;5079420;28;20226;-74
2023/02/18 01:39:31;;;;;;;1.88;1.80;;;;;;;;;;5078115;28;20510;-75
2023/02/18 01:41:59;;;;;;;1.92;1.83;;;;;;;;;;5078665;28;20226;-74
2023/02/18 01:44:28;;;;;;;1.38;1.35;;;;;;;;;;5078812;28;20220;-73
2023/02/18 01:46:57;;;;;;;1.77;1.67;;;;;;;;;;5078780;28;20225;-74
2023/02/18 01:49:27;;;;;;;3.38;3.17;;;;;;;;;;5078553;28;20345;-74
2023/02/18 01:51:57;;;;;;;1.13;1.13;;;;;;;;;;5078096;28;20588;-74
2023/02/18 01:54:28;;;;;;;1.15;1.15;;;;;;;;;;5079053;28;20250;-74
2023/02/18 01:56:58;;;;;;;1.80;1.70;;;;;;;;;;5079188;28;20217;-73
2023/02/18 01:59:29;;;;;;;2.42;2.30;;;;;;;;;;5078505;28;20244;-74
2023/02/18 02:01:59;;;;;;;1.02;1.02;;;;;;;;;;5078208;28;20226;-74
2023/02/18 02:04:26;;;;;;;1.73;1.63;;;;;;;;;;5078505;28;20582;-75
2023/02/18 02:07:00;;;;;;;2.10;2.00;;;;;;;;;;5083299;28;20235;-74
2023/02/18 02:09:30;;;;;;;1.60;1.50;;;;;;;;;;5081914;28;20221;-74
2023/02/18 02:12:15;;;;;;;1.80;1.70;;;;;;;;;;5078463;28;20609;-74
2023/02/18 02:14:48;;;;;;;1.42;1.38;;;;;;;;;;5076179;28;20239;-74
2023/02/18 02:17:20;;;;;;;1.85;1.75;;;;;;;;;;5078171;28;20563;-74
2023/02/18 02:20:06;;;;;;;3.10;2.92;;;;;;;;;;5078099;28;20244;-74
2023/02/18 02:22:52;;;;;;;1.17;1.17;;;;;;;;;;5077943;28;20311;-74
2023/02/18 02:25:25;;;;;;;0.93;0.93;;;;;;;;;;5076904;28;20236;-74
2023/02/18 02:28:06;;;;;;;1.23;1.23;;;;;;;;;;5078001;28;20239;-73
2023/02/18 02:30:48;;;;;;;1.38;1.33;;;;;;;;;;5078258;28;20220;-73
2023/02/18 02:33:34;;;;;;;1.15;1.15;;;;;;;;;;5077846;28;20302;-74
2023/02/18 02:36:06;;;;;;;2.28;2.17;;;;;;;;;;5077905;28;20271;-73
2023/02/18 02:38:37;;;;;;;1.45;1.40;;;;;;;;;;5077722;28;20252;-74
2023/02/18 02:41:11;;;;;;;1.35;1.35;;;;;;;;;;5077648;28;20359;-75
2023/02/18 02:43:45;;;;;;;1.63;1.52;;;;;;;;;;5077827;28;20854;-74
2023/02/18 02:46:15;;;;;;;2.22;2.13;;;;;;;;;;5077488;28;20220;-74
2023/02/18 02:48:46;;;;;;;2.97;2.78;;;;;;;;;;5077623;28;20221;-75
2023/02/18 02:51:19;;;;;;;1.10;1.10;;;;;;;;;;5091526;28;20216;-75
2023/02/18 02:53:46;;;;;;;0.82;0.82;;;;;;;;;;5098001;28;20458;-75
2023/02/18 02:56:17;;;;;;;1.52;1.48;;;;;;;;;;5097649;28;20224;-74
2023/02/18 02:58:46;;;;;;;1.67;1.60;;;;;;;;;;5097645;28;20231;-74
2023/02/18 03:01:31;;;;;;;4.05;3.80;;;;;;;;;;5098061;28;20274;-74
2023/02/18 03:04:15;;;;;;;1.25;1.25;;;;;;;;;;5097765;28;20229;-75
2023/02/18 03:06:51;;;;;;;2.65;2.55;;;;;;;;;;5095375;28;20827;-74
2023/02/18 03:09:22;;;;;;;1.42;1.33;;;;;;;;;;5097827;28;20291;-74
2023/02/18 03:11:54;;;;;;;2.10;2.00;;;;;;;;;;5097942;28;20224;-75
2023/02/18 03:14:28;;;;;;;0.77;0.77;;;;;;;;;;5097692;28;20274;-75
2023/02/18 03:17:00;;;;;;;1.08;1.08;;;;;;;;;;5097377;28;20226;-75
2023/02/18 03:19:30;;;;;;;0.95;0.95;;;;;;;;;;5090423;28;20254;-74
2023/02/18 03:22:01;;;;;;;2.92;2.78;;;;;;;;;;5077585;28;20221;-74
2023/02/18 03:24:30;;;;;;;3.63;3.42;;;;;;;;;;5077170;28;20222;-75
2023/02/18 03:27:00;;;;;;;0.93;0.93;;;;;;;;;;5076604;28;20221;-74
2023/02/18 03:29:28;;;;;;;1.30;1.23;;;;;;;;;;5077306;28;20230;-74
2023/02/18 03:31:57;;;;;;;1.58;1.48;;;;;;;;;;5077350;28;20221;-74
2023/02/18 03:34:27;;;;;;;1.70;1.60;;;;;;;;;;5077041;28;20601;-74
2023/02/18 03:36:56;;;;;;;1.60;1.50;;;;;;;;;;5087428;28;20216;-74
2023/02/18 03:39:26;;;;;;;1.27;1.27;;;;;;;;;;5097213;28;20244;-75
2023/02/18 03:41:54;;;;;;;1.67;1.60;;;;;;;;;;5097073;28;20664;-75
2023/02/18 03:44:22;;;;;;;2.67;2.55;;;;;;;;;;5097081;28;20217;-74
2023/02/18 03:46:49;;;;;;;1.45;1.40;;;;;;;;;;5095994;28;20309;-74
2023/02/18 03:49:17;;;;;;;2.15;2.05;;;;;;;;;;5079693;28;20221;-74
2023/02/18 03:51:46;;;;;;;1.45;1.38;;;;;;;;;;5077169;28;20221;-74
2023/02/18 03:54:14;;;;;;;1.25;1.25;;;;;;;;;;5076528;28;20724;-73
2023/02/18 03:56:43;;;;;;;1.60;1.50;;;;;;;;;;5077526;28;20228;-74
2023/02/18 03:59:11;;;;;;;2.53;2.42;;;;;;;;;;5077268;28;20227;-74
2023/02/18 04:01:39;;;;;;;1.15;1.15;;;;;;;;;;5076335;28;20508;-74
2023/02/18 04:04:07;;;;;;;1.98;1.88;;;;;;;;;;5079689;28;20541;-74
2023/02/18 04:06:35;;;;;;;1.50;1.45;;;;;;;;;;5080897;28;20298;-74
2023/02/18 04:09:07;;;;;;;1.17;1.17;;;;;;;;;;5080921;28;20223;-74
2023/02/18 04:11:35;;;;;;;2.20;2.10;;;;;;;;;;5080670;28;20233;-74
2023/02/18 04:14:04;;;;;;;0.65;0.65;;;;;;;;;;5080603;28;20612;-74
2023/02/18 04:16:31;;;;;;;0.70;0.70;;;;;;;;;;5080296;28;20285;-74
2023/02/18 04:18:59;;;;;;;0.85;0.85;;;;;;;;;;5080944;28;20566;-74
2023/02/18 04:21:27;;;;;;;0.65;0.65;;;;;;;;;;5080888;28;20224;-74
2023/02/18 04:23:55;;;;;;;1.77;1.67;;;;;;;;;;5080572;28;20694;-75
2023/02/18 04:26:22;;;;;;;1.30;1.30;;;;;;;;;;5080862;28;20505;-75
2023/02/18 04:28:53;;;;;;;2.17;2.08;;;;;;;;;;5101093;28;20224;-74
2023/02/18 04:31:22;;;;;;;1.33;1.30;;;;;;;;;;5100456;28;20216;-74
2023/02/18 04:33:50;;;;;;;0.60;0.60;;;;;;;;;;5099955;28;20227;-75
2023/02/18 04:36:18;;;;;;;0.70;0.70;;;;;;;;;;5100915;28;20220;-75
2023/02/18 04:38:46;;;;;;;0.70;0.70;;;;;;;;;;5100978;28;20311;-74
2023/02/18 04:41:13;;;;;;;0.55;0.55;;;;;;;;;;5099789;28;20239;-74
2023/02/18 04:43:41;;;;;;;1.27;1.27;;;;;;;;;;5099960;28;20231;-74
2023/02/18 04:46:12;;;;;;;0.70;0.70;;;;;;;;;;5100562;28;20235;-74
2023/02/18 04:48:41;;;;;;;1.10;1.10;;;;;;;;;;5100560;28;20244;-74
2023/02/18 04:51:08;;;;;;;0.95;0.95;;;;;;;;;;5100584;28;20265;-74
2023/02/18 04:53:36;;;;;;;1.60;1.50;;;;;;;;;;5100223;28;20297;-74
2023/02/18 04:56:04;;;;;;;1.10;1.10;;;;;;;;;;5099659;28;20227;-74
2023/02/18 04:58:31;;;;;;;1.23;1.23;;;;;;;;;;5100076;28;20285;-74
2023/02/18 05:01:00;;;;;;;1.67;1.58;;;;;;;;;;5100573;28;20308;-75
2023/02/18 05:03:28;;;;;;;1.73;1.65;;;;;;;;;;5099949;28;20315;-74
2023/02/18 05:05:57;;;;;;;0.73;0.73;;;;;;;;;;5099924;28;20221;-74
2023/02/18 05:08:25;;;;;;;1.10;1.10;;;;;;;;;;5099648;28;20608;-74
2023/02/18 05:10:53;;;;;;;0.95;0.95;;;;;;;;;;5100235;28;20608;-74
2023/02/18 05:13:21;;;;;;;0.98;0.98;;;;;;;;;;5100168;28;20220;-74
2023/02/18 05:15:49;;;;;;;0.60;0.60;;;;;;;;;;5099106;28;20622;-74
2023/02/18 05:18:16;;;;;;;1.50;1.40;;;;;;;;;;5100170;28;20231;-73
2023/02/18 05:20:44;;;;;;;1.92;1.85;;;;;;;;;;5100109;28;20250;-74
2023/02/18 05:23:15;;;;;;;0.77;0.77;;;;;;;;;;5100158;28;20542;-74
2023/02/18 05:25:43;;;;;;;2.05;1.95;;;;;;;;;;5100199;28;20263;-75
2023/02/18 05:28:10;;;;;;;1.63;1.55;;;;;;;;;;5100285;28;20252;-74
2023/02/18 05:30:38;;;;;;;0.88;0.88;;;;;;;;;;5099449;28;20592;-74
2023/02/18 05:33:06;;;;;;;1.25;1.25;;;;;;;;;;5100304;28;20221;-74
2023/02/18 05:35:33;;;;;;;1.40;1.38;;;;;;;;;;5099740;28;20227;-74
2023/02/18 05:38:01;;;;;;;0.75;0.75;;;;;;;;;;5099709;28;20666;-74
2023/02/18 05:40:30;;;;;;;0.95;0.95;;;;;;;;;;5099520;28;20242;-75
2023/02/18 05:42:58;;;;;;;1.83;1.73;;;;;;;;;;5099184;28;20224;-75
2023/02/18 05:45:25;;;;;;;2.08;1.98;;;;;;;;;;5099540;28;20236;-74
2023/02/18 05:47:55;;;;;;;0.85;0.85;;;;;;;;;;5099257;28;20228;-74
2023/02/18 05:50:23;;;;;;;0.82;0.82;;;;;;;;;;5091715;28;20259;-74
2023/02/18 05:52:50;;;;;;;1.10;1.10;;;;;;;;;;5079211;28;20233;-74
2023/02/18 05:55:18;;;;;;;1.92;1.83;;;;;;;;;;5091985;28;20522;-74
2023/02/18 05:57:50;;;;;;;1.92;1.83;;;;;;;;;;5089742;28;20679;-74
2023/02/18 06:00:25;;;;;;;1.15;1.15;;;;;;;;;;5093136;28;20242;-73
2023/02/18 06:02:55;;;;;;;1.25;1.25;;;;;;;;;;5099075;28;20279;-74
2023/02/18 06:05:23;;;;;;;0.80;0.80;;;;;;;;;;5099341;28;20229;-74
2023/02/18 06:07:50;;;;;;;0.95;0.95;;;;;;;;;;5098174;28;20257;-74
2023/02/18 06:10:19;;;;;;;0.63;0.63;;;;;;;;;;5098727;28;20220;-74
2023/02/18 06:12:46;;;;;;;2.00;1.90;;;;;;;;;;5097803;28;20221;-73
2023/02/18 06:15:16;;;;;;;1.08;1.08;;;;;;;;;;5098735;28;20232;-74
2023/02/18 06:17:47;;;;;;;1.55;1.45;;;;;;;;;;5098520;28;20272;-73
2023/02/18 06:20:20;;;;;;;0.85;0.85;;;;;;;;;;5098739;28;20645;-73
2023/02/18 06:22:52;;;;;;;0.70;0.70;;;;;;;;;;5098898;28;20220;-74
2023/02/18 06:25:32;;;;;;;1.25;1.25;;;;;;;;;;5098587;28;20230;-73
2023/02/18 06:28:03;;;;;;;0.90;0.90;;;;;;;;;;5098052;28;20612;-74
2023/02/18 06:30:32;;;;;;;2.00;1.92;;;;;;;;;;5097860;28;20220;-74
2023/02/18 06:33:03;;;;;;;0.68;0.68;;;;;;;;;;5097870;28;20228;-74
2023/02/18 06:35:30;;;;;;;0.85;0.85;;;;;;;;;;5098054;28;20220;-73
2023/02/18 06:38:15;;;;;;;0.70;0.70;;;;;;;;;;5098237;28;20224;-75
2023/02/18 06:40:46;;;;;;;1.08;1.08;;;;;;;;;;5098220;28;20275;-74
2023/02/18 06:43:14;;;;;;;0.60;0.60;;;;;;;;;;5098422;28;20224;-73
2023/02/18 06:45:43;;;;;;;1.00;1.00;;;;;;;;;;5098775;28;20220;-73
2023/02/18 06:48:22;;;;;;;2.00;1.90;;;;;;;;;;5097160;28;20663;-74
2023/02/18 06:50:50;;;;;;;0.73;0.73;;;;;;;;;;5077003;28;20225;-74
2023/02/18 06:53:18;;;;;;;0.85;0.85;;;;;;;;;;5094199;28;20500;-74
2023/02/18 06:55:46;;;;;;;1.35;1.35;;;;;;;;;;5087984;28;20229;-76
2023/02/18 06:58:16;;;;;;;1.13;1.13;;;;;;;;;;5090030;28;20223;-73
2023/02/18 07:00:48;;;;;;;1.42;1.35;;;;;;;;;;5097410;28;20261;-76
2023/02/18 07:03:17;;;;;;;1.13;1.13;;;;;;;;;;5096678;28;20216;-74
2023/02/18 07:05:55;;;;;;;0.95;0.95;;;;;;;;;;5096395;28;20228;-74
2023/02/18 07:08:34;;;;;;;2.08;1.98;;;;;;;;;;5089764;28;20252;-74
2023/02/18 07:11:05;;;;;;;1.52;1.42;;;;;;;;;;5076881;28;20229;-74
2023/02/18 07:13:37;;;;;;;2.65;2.50;;;;;;;;;;5081620;28;20216;-74
2023/02/18 07:16:07;;;;;;;2.65;2.45;;;;;;;;;;5088803;28;20220;-75
2023/02/18 07:18:34;;;;;;;2.10;2.00;;;;;;;;;;5087200;28;20552;-75
2023/02/18 07:21:02;;;;;;;1.75;1.65;;;;;;;;;;5096708;28;20248;-74
2023/02/18 07:23:33;;;;;;;0.77;0.77;;;;;;;;;;5081413;28;20304;-74
2023/02/18 07:28:47;;;;;;;2.10;2.00;;;;;;;;;;5081681;28;20250;-74
2023/02/18 07:31:22;;;;;;;3.05;2.85;;;;;;;;;;5088731;28;20212;-74
2023/02/18 07:33:50;;;;;;;1.52;1.45;;;;;;;;;;5087911;28;20224;-74
2023/02/18 07:36:18;;;;;;;3.05;2.85;;;;;;;;;;5084579;28;20635;-74
2023/02/18 07:38:48;;;;;;;3.50;3.30;;;;;;;;;;5099222;28;20296;-75
2023/02/18 07:41:17;;;;;;;4.57;4.28;;;;;;;;;;5100963;28;20635;-74
2023/02/18 07:43:45;;;;;;;2.05;1.95;;;;;;;;;;5100764;28;20233;-75
2023/02/18 07:46:16;;;;;;;3.30;3.10;;;;;;;;;;5099189;28;20216;-74
2023/02/18 07:48:45;;;;;;;2.92;2.80;;;;;;;;;;5079634;28;20228;-74
2023/02/18 07:51:13;;;;;;;2.60;2.50;;;;;;;;;;5080556;28;20217;-74
2023/02/18 07:53:46;;;;;;;2.28;2.17;;;;;;;;;;5098673;28;20597;-75
2023/02/18 07:56:14;;;;;;;2.80;2.63;;;;;;;;;;5099214;28;20216;-74
2023/02/18 07:58:49;;;;;;;2.50;2.40;;;;;;;;;;5097202;28;20221;-75
2023/02/18 08:01:18;;;;;;;3.80;3.60;;;;;;;;;;5090605;28;20239;-75
2023/02/18 08:03:48;;;;;;;1.63;1.55;;;;;;;;;;5101538;28;20220;-74
2023/02/18 08:06:23;;;;;;;1.33;1.33;;;;;;;;;;5096192;28;20302;-73
2023/02/18 08:08:51;;;;;;;2.65;2.53;;;;;;;;;;5094087;28;20326;-74
2023/02/18 08:11:19;;;;;;;1.67;1.58;;;;;;;;;;5099340;28;20237;-74
2023/02/18 08:13:46;;;;;;;2.15;2.05;;;;;;;;;;5100913;28;20216;-75
2023/02/18 08:16:14;;;;;;;0.98;0.98;;;;;;;;;;5099073;28;20221;-74
2023/02/18 08:18:42;;;;;;;2.85;2.67;;;;;;;;;;5081962;28;20554;-74
2023/02/18 08:21:11;;;;;;;1.55;1.45;;;;;;;;;;5098998;28;20251;-76
2023/02/18 08:23:40;;;;;;;1.35;1.35;;;;;;;;;;5098663;28;20259;-75
2023/02/18 08:26:11;;;;;;;3.40;3.20;;;;;;;;;;5100638;28;20507;-74
2023/02/18 08:28:39;;;;;;;3.58;3.38;;;;;;;;;;5099592;28;20231;-74
2023/02/18 08:31:07;;;;;;;1.10;1.10;;;;;;;;;;5089041;28;20247;-74
2023/02/18 08:33:37;;;;;;;1.50;1.48;;;;;;;;;;5081248;28;20217;-73
2023/02/18 08:36:09;;;;;;;1.85;1.75;;;;;;;;;;5088043;28;20582;-73
2023/02/18 08:38:51;;;;;;;1.40;1.40;;;;;;;;;;5086990;28;20212;-75
2023/02/18 08:41:23;;;;;;;3.13;2.92;;;;;;;;;;5084235;28;20236;-74
2023/02/18 08:43:53;;;;;;;2.75;2.55;;;;;;;;;;5095142;28;20221;-74
2023/02/18 08:46:25;;;;;;;1.98;1.88;;;;;;;;;;5083957;28;20277;-74
2023/02/18 08:48:53;;;;;;;5.40;5.10;;;;;;;;;;5088115;28;20213;-74
2023/02/18 08:51:28;;;;;;;1.80;1.70;;;;;;;;;;5091879;28;20219;-75
2023/02/18 08:54:01;;;;;;;4.80;4.50;;;;;;;;;;5083615;28;20289;-73
2023/02/18 08:56:30;;;;;;;2.53;2.42;;;;;;;;;;5083297;28;21084;-74
2023/02/18 08:59:08;;;;;;;2.20;2.10;;;;;;;;;;5086029;28;20327;-75
2023/02/18 09:01:39;;;;;;;4.20;3.97;;;;;;;;;;5080644;28;20325;-72
2023/02/18 09:07:02;;;;;;;2.45;2.33;;;;;;;;;;5084209;28;20592;-73
2023/02/18 09:09:34;;;;;;;3.65;3.45;;;;;;;;;;5097803;28;20228;-74
2023/02/18 09:12:05;;;;;;;3.58;3.38;;;;;;;;;;5083665;28;20213;-73
2023/02/18 09:14:35;;;;;;;2.85;2.75;;;;;;;;;;5097329;28;20224;-73
2023/02/18 09:17:04;;;;;;;3.85;3.65;;;;;;;;;;5087736;28;20226;-73
2023/02/18 09:19:41;;;;;;;4.63;4.32;;;;;;;;;;5088916;28;20805;-74
2023/02/18 09:22:17;;;;;;;2.38;2.28;;;;;;;;;;5085841;28;20715;-73
2023/02/18 09:24:51;;;;;;;4.15;3.92;;;;;;;;;;5082107;28;20221;-73
2023/02/18 09:27:30;;;;;;;6.20;5.80;;;;;;;;;;5080793;28;20286;-73
2023/02/18 09:29:58;;;;;;;3.20;3.00;;;;;;;;;;5079064;28;20717;-73
2023/02/18 09:32:34;;;;;;;4.43;4.15;;;;;;;;;;5095545;28;20312;-73
2023/02/18 09:35:04;;;;;;;4.55;4.25;;;;;;;;;;5117202;28;20214;-73
2023/02/18 09:37:33;;;;;;;3.28;3.08;;;;;;;;;;5084679;28;20216;-73
2023/02/18 09:40:02;;;;;;;4.43;4.18;;;;;;;;;;5089286;28;20270;-73
2023/02/18 09:42:32;;;;;;;3.45;3.25;;;;;;;;;;5085901;28;20236;-72
2023/02/18 09:45:01;;;;;;;4.75;4.45;;;;;;;;;;5089177;28;20227;-73
2023/02/18 09:47:33;;;;;;;2.53;2.42;;;;;;;;;;5097993;28;20225;-73
2023/02/18 09:52:54;;;;;;;5.88;5.47;;;;;;;;;;5080093;28;20243;-72
2023/02/18 09:55:27;;;;;;;3.70;3.50;;;;;;;;;;5076939;28;20230;-75
2023/02/18 09:58:04;;;;;;;4.30;4.03;;;;;;;;;;5106772;28;20220;-72
2023/02/18 10:00:37;;;;;;;4.65;4.35;;;;;;;;;;5094974;28;20314;-72
2023/02/18 10:03:06;;;;;;;3.92;3.72;;;;;;;;;;5095817;28;20248;-72
2023/02/18 10:05:35;;;;;;;6.75;6.28;;;;;;;;;;5096915;28;20242;-73
2023/02/18 10:08:05;;;;;;;3.47;3.25;;;;;;;;;;5086441;28;20226;-72
2023/02/18 10:10:39;;;;;;;3.45;3.25;;;;;;;;;;5078524;28;20223;-72
2023/02/18 10:13:12;;;;;;;3.85;3.63;;;;;;;;;;5094921;28;20221;-72
2023/02/18 10:15:42;;;;;;;4.72;4.43;;;;;;;;;;5096764;28;20216;-72
2023/02/18 10:18:19;;;;;;;4.88;4.57;;;;;;;;;;5095684;28;20285;-72
2023/02/18 10:20:46;;;;;;;4.78;4.50;;;;;;;;;;5095374;28;20263;-72
2023/02/18 10:23:16;;;;;;;4.30;4.05;;;;;;;;;;5093525;28;20337;-72
2023/02/18 10:25:47;;;;;;;5.57;5.20;;;;;;;;;;5097087;28;20220;-72
2023/02/18 10:28:23;;;;;;;5.50;5.15;;;;;;;;;;5094324;28;20455;-72
2023/02/18 10:31:01;;;;;;;6.38;5.97;;;;;;;;;;5075949;28;20252;-73
2023/02/18 10:33:34;;;;;;;5.10;4.80;;;;;;;;;;5076268;28;20347;-72
2023/02/18 10:36:06;;;;;;;3.72;3.53;;;;;;;;;;5089140;28;20575;-72
2023/02/18 10:38:44;;;;;;;4.03;3.83;;;;;;;;;;5088863;28;20238;-70
2023/02/18 10:41:17;;;;;;;4.78;4.53;;;;;;;;;;5092721;28;20251;-72
2023/02/18 10:44:06;;;;;;;4.00;3.70;;;;;;;;;;5079557;28;20264;-74
2023/02/18 10:46:48;;;;;;;4.10;3.90;;;;;;;;;;5076886;28;20221;-71
2023/02/18 10:49:34;;;;;;;5.13;4.82;;;;;;;;;;5089436;28;20242;-72
2023/02/18 10:52:10;;;;;;;7.55;7.05;;;;;;;;;;5095246;28;20234;-72
2023/02/18 10:55:08;;;;;;;5.43;5.03;;;;;;;;;;5077610;28;20274;-73
2023/02/18 10:58:09;;;;;;;4.68;4.35;;;;;;;;;;5078819;28;20217;-73
2023/02/18 11:03:23;;;;;;;5.90;5.50;;;;;;;;;;5091282;28;20262;-72
2023/02/18 11:05:57;;;;;;;3.22;3.03;;;;;;;;;;5096851;28;20216;-72
2023/02/18 11:08:41;;;;;;;5.65;5.25;;;;;;;;;;5078254;28;20221;-72
2023/02/18 11:11:12;;;;;;;6.70;6.20;;;;;;;;;;5096763;28;20213;-72
2023/02/18 11:13:43;;;;;;;6.63;6.20;;;;;;;;;;5088996;28;20233;-71
2023/02/18 11:16:13;;;;;;;5.28;4.97;;;;;;;;;;5076982;28;20260;-72
2023/02/18 11:18:46;;;;;;;3.25;3.05;;;;;;;;;;5076042;28;20221;-72
2023/02/18 11:21:33;;;;;;;5.20;4.90;;;;;;;;;;5088730;28;20225;-71
2023/02/18 11:24:20;;;;;;;7.38;6.85;;;;;;;;;;5096969;28;20252;-72
2023/02/18 11:26:51;;;;;;;4.72;4.43;;;;;;;;;;5083556;28;20244;-72
2023/02/18 11:29:28;;;;;;;4.68;4.40;;;;;;;;;;5081722;28;20221;-72
2023/02/18 11:32:17;;;;;;;5.25;4.95;;;;;;;;;;5093532;28;20668;-73
2023/02/18 11:34:54;;;;;;;3.50;3.30;;;;;;;;;;5093843;28;20265;-72
2023/02/18 11:37:25;;;;;;;8.77;8.18;;;;;;;;;;5076755;28;20318;-72
2023/02/18 11:39:58;;;;;;;9.00;8.45;;;;;;;;;;5079605;28;20222;-72
2023/02/18 11:42:30;;;;;;;9.18;8.57;;;;;;;;;;5095277;28;20236;-73
2023/02/18 11:45:07;;;;;;;9.30;8.77;;;;;;;;;;5096828;28;20615;-73
2023/02/18 11:47:39;;;;;;;6.15;5.85;;;;;;;;;;5082317;28;20222;-73
2023/02/18 11:50:25;;;;;;;5.50;5.20;;;;;;;;;;5095017;28;20216;-73
2023/02/18 11:53:02;;;;;;;4.68;4.38;;;;;;;;;;5090818;28;20223;-73
2023/02/18 11:55:31;;;;;;;4.45;4.18;;;;;;;;;;5075810;28;20502;-73
2023/02/18 11:58:02;;;;;;;3.55;3.35;;;;;;;;;;5076822;28;20509;-73
2023/02/18 12:00:38;;;;;;;5.43;5.15;;;;;;;;;;5093547;28;20224;-73
2023/02/18 12:03:13;;;;;;;4.18;3.90;;;;;;;;;;5095975;28;20330;-73
2023/02/18 12:05:52;;;;;;;8.27;7.70;;;;;;;;;;5095785;28;20237;-73
2023/02/18 12:08:25;;;;;;;4.85;4.55;;;;;;;;;;5088409;28;20316;-73
2023/02/18 12:11:01;;;;;;;7.60;7.05;;;;;;;;;;5082370;28;20222;-73
2023/02/18 12:13:36;;;;;;;5.90;5.50;;;;;;;;;;5093830;28;20604;-74
2023/02/18 12:16:11;;;;;;;5.10;4.80;;;;;;;;;;5094346;28;20221;-74
2023/02/18 12:18:52;;;;;;;5.15;4.85;;;;;;;;;;5094247;28;20232;-73
2023/02/18 12:21:27;;;;;;;8.98;8.38;;;;;;;;;;5094551;28;20573;-73
2023/02/18 12:24:05;;;;;;;4.75;4.45;;;;;;;;;;5088727;28;20692;-74
2023/02/18 12:26:57;;;;;;;8.27;7.72;;;;;;;;;;5078343;28;20343;-75
2023/02/18 12:29:56;;;;;;;2.75;2.65;;;;;;;;;;5090581;28;20274;-73
2023/02/18 12:32:41;;;;;;;4.88;4.57;;;;;;;;;;5082451;28;20489;-75
2023/02/18 12:35:30;;;;;;;4.75;4.45;;;;;;;;;;5099336;28;20718;-74
2023/02/18 12:38:11;;;;;;;6.53;6.10;;;;;;;;;;5077987;28;20233;-74
2023/02/18 12:40:50;;;;;;;5.53;5.13;;;;;;;;;;5081936;28;20223;-73
2023/02/18 12:43:23;;;;;;;4.70;4.40;;;;;;;;;;5086680;28;20282;-74
2023/02/18 12:49:05;;;;;;;7.75;7.22;;;;;;;;;;5098707;28;20511;-74
2023/02/18 12:51:45;;;;;;;7.22;6.72;;;;;;;;;;5097724;28;20252;-73
2023/02/18 12:54:23;;;;;;;4.68;4.38;;;;;;;;;;5094145;28;20224;-74
2023/02/18 12:56:56;;;;;;;5.20;4.88;;;;;;;;;;5098201;28;20259;-73
2023/02/18 12:59:47;;;;;;;4.13;3.88;;;;;;;;;;5088552;28;20229;-73
2023/02/18 13:02:24;;;;;;;4.38;4.10;;;;;;;;;;5082335;28;20351;-73
2023/02/18 13:04:56;;;;;;;6.78;6.30;;;;;;;;;;5096994;28;20780;-73
2023/02/18 13:07:56;;;;;;;7.55;7.05;;;;;;;;;;5080637;28;20298;-73
2023/02/18 13:10:43;;;;;;;3.08;2.88;;;;;;;;;;5094522;28;20224;-73
2023/02/18 13:13:18;;;;;;;3.97;3.75;;;;;;;;;;5100490;28;20308;-75
2023/02/18 13:15:56;;;;;;;3.35;3.15;;;;;;;;;;5114093;28;20281;-74
2023/02/18 13:18:33;;;;;;;15.45;14.57;;;;;;;;;;5080853;28;20521;-74
2023/02/18 13:21:07;;;;;;;2.75;2.60;;;;;;;;;;5083316;28;20209;-72
2023/02/18 13:23:38;;;;;;;3.38;3.17;;;;;;;;;;5091168;28;20244;-74
2023/02/18 13:26:15;;;;;;;3.42;3.22;;;;;;;;;;5097726;28;20216;-74
2023/02/18 13:28:45;;;;;;;4.57;4.28;;;;;;;;;;5096782;28;20513;-74
2023/02/18 13:31:20;;;;;;;3.78;3.58;;;;;;;;;;5097478;28;20221;-74
2023/02/18 13:33:52;;;;;;;5.90;5.50;;;;;;;;;;5091440;28;20605;-74
2023/02/18 13:36:37;;;;;;;5.90;5.53;;;;;;;;;;5085815;28;20239;-74
2023/02/18 13:39:10;;;;;;;9.52;9.00;;;;;;;;;;5096470;28;20227;-73
2023/02/18 13:41:43;;;;;;;11.88;11.27;;;;;;;;;;5086909;28;20690;-73
2023/02/18 13:44:29;;;;;;;12.13;11.52;;;;;;;;;;5084025;28;20236;-73
2023/02/18 13:47:08;;;;;;;11.93;11.32;;;;;;;;;;5079974;28;20231;-74
2023/02/18 13:49:39;;;;;;;14.93;14.13;;;;;;;;;;5097481;28;20221;-74
2023/02/18 13:52:07;;;;;;;17.58;16.48;;;;;;;;;;5087441;28;20213;-74
2023/02/18 13:54:43;;;;;;;15.38;14.55;;;;;;;;;;5086609;28;20216;-74
2023/02/18 13:57:23;;;;;;;13.63;12.90;;;;;;;;;;5092752;28;20575;-73
2023/02/18 13:59:53;;;;;;;15.18;14.35;;;;;;;;;;5094622;28;20656;-73
2023/02/18 14:02:34;;;;;;;13.20;12.50;;;;;;;;;;5097081;28;20638;-73
2023/02/18 14:05:18;;;;;;;13.15;12.50;;;;;;;;;;5097488;28;20220;-72
2023/02/18 14:07:49;;;;;;;13.63;12.93;;;;;;;;;;5095357;28;20223;-72
2023/02/18 14:10:35;;;;;;;15.65;14.75;;;;;;;;;;5097616;28;20223;-73
2023/02/18 14:13:19;;;;;;;12.15;11.55;;;;;;;;;;5087581;28;20220;-73
2023/02/18 14:15:59;;;;;;;13.73;12.93;;;;;;;;;;5097318;28;20320;-72
2023/02/18 14:18:35;;;;;;;13.02;12.38;;;;;;;;;;5088018;28;20549;-74
2023/02/18 14:21:19;;;;;;;13.60;12.90;;;;;;;;;;5095811;28;20216;-74
2023/02/18 14:23:59;;;;;;;13.35;12.65;;;;;;;;;;5096601;28;20224;-73
2023/02/18 14:26:32;;;;;;;15.52;14.65;;;;;;;;;;5096688;28;20224;-73
2023/02/18 14:29:09;;;;;;;11.00;10.50;;;;;;;;;;5096649;28;20239;-73
2023/02/18 14:31:42;;;;;;;14.02;13.27;;;;;;;;;;5094354;28;20228;-73
2023/02/18 14:34:27;;;;;;;11.38;10.82;;;;;;;;;;5095651;28;20266;-73
2023/02/18 14:37:00;;;;;;;16.25;15.35;;;;;;;;;;5097891;28;20227;-73
2023/02/18 14:39:38;;;;;;;12.32;11.73;;;;;;;;;;5096428;28;20328;-74
2023/02/18 14:42:13;;;;;;;13.32;12.60;;;;;;;;;;5093781;28;20239;-73
2023/02/18 14:44:46;;;;;;;15.48;14.63;;;;;;;;;;5091242;28;20246;-73
2023/02/18 14:47:37;;;;;;;13.20;12.52;;;;;;;;;;5076672;28;20234;-73
2023/02/18 14:55:53;;;;;;;12.50;11.80;;;;;;;;;;5074580;28;20831;-72
2023/02/18 14:58:35;;;;;;;4.30;4.10;;;;;;;;;;5078355;28;20222;-72
2023/02/18 15:01:07;;;;;;;3.78;3.58;;;;;;;;;;5076797;28;20220;-73
2023/02/18 15:03:41;;;;;;;3.33;3.13;;;;;;;;;;5076264;28;20237;-74
2023/02/18 15:06:24;;;;;;;2.90;2.80;;;;;;;;;;5078366;28;20306;-74
2023/02/18 15:08:58;;;;;;;4.65;4.38;;;;;;;;;;5076060;28;20249;-74
2023/02/18 15:11:28;;;;;;;5.00;4.70;;;;;;;;;;5075926;28;20228;-74
2023/02/18 15:13:59;;;;;;;3.08;2.97;;;;;;;;;;5076438;28;20644;-74
2023/02/18 15:16:30;;;;;;;2.30;2.20;;;;;;;;;;5075083;28;20216;-74
2023/02/18 15:19:00;;;;;;;4.65;4.43;;;;;;;;;;5075610;28;20233;-73
2023/02/18 15:21:30;;;;;;;5.50;5.20;;;;;;;;;;5075789;28;20228;-74
2023/02/18 15:24:06;;;;;;;3.53;3.38;;;;;;;;;;5076671;28;20272;-73
2023/02/18 15:26:34;;;;;;;3.70;3.50;;;;;;;;;;5076550;28;20598;-73
2023/02/18 15:29:04;;;;;;;6.22;5.93;;;;;;;;;;5075526;28;20281;-74
2023/02/18 15:31:37;;;;;;;4.13;3.92;;;;;;;;;;5076172;28;20221;-73
2023/02/18 15:34:18;;;;;;;5.03;4.72;;;;;;;;;;5075466;28;20232;-73
2023/02/18 15:36:59;;;;;;;2.05;1.95;;;;;;;;;;5074347;28;20225;-73